createdAt,value
2017-11-15T00:00:58.631Z,948.9
2017-11-15T00:02:06.773Z,948.9
2017-11-15T00:03:14.803Z,948.9
2017-11-15T00:04:22.909Z,948.9
2017-11-15T00:05:30.993Z,948.9
2017-11-15T00:06:39.078Z,948.8
2017-11-15T00:07:47.455Z,948.9
2017-11-15T00:08:55.273Z,948.8
2017-11-15T00:10:03.336Z,948.8
2017-11-15T00:11:11.431Z,948.8
2017-11-15T00:12:19.629Z,948.8
2017-11-15T00:13:27.651Z,948.9
2017-11-15T00:14:35.681Z,948.9
2017-11-15T00:15:43.767Z,948.9
2017-11-15T00:16:51.854Z,948.8
2017-11-15T00:17:59.943Z,948.8
2017-11-15T00:19:08.081Z,948.8
2017-11-15T00:20:16.110Z,948.8
2017-11-15T00:21:24.195Z,948.8
2017-11-15T00:22:32.280Z,948.8
2017-11-15T00:23:40.528Z,948.8
2017-11-15T00:24:48.625Z,948.8
2017-11-15T00:25:56.592Z,948.9
2017-11-15T00:27:04.687Z,948.9
2017-11-15T00:28:12.883Z,948.9
2017-11-15T00:29:20.846Z,948.9
2017-11-15T00:30:28.992Z,948.9
2017-11-15T00:31:37.065Z,948.9
2017-11-15T00:32:45.105Z,948.9
2017-11-15T00:33:53.193Z,948.8
2017-11-15T00:35:01.275Z,948.8
2017-11-15T00:36:09.536Z,948.8
2017-11-15T00:37:17.452Z,948.8
2017-11-15T00:38:25.536Z,948.8
2017-11-15T00:39:33.624Z,948.8
2017-11-15T00:40:41.710Z,948.8
2017-11-15T00:41:49.852Z,948.7
2017-11-15T00:42:57.882Z,948.7
2017-11-15T00:44:06.025Z,948.7
2017-11-15T00:45:14.125Z,948.8
2017-11-15T00:46:22.248Z,948.7
2017-11-15T00:47:30.346Z,948.7
2017-11-15T00:48:38.313Z,948.7
2017-11-15T00:49:46.477Z,948.7
2017-11-15T00:50:54.543Z,948.7
2017-11-15T00:52:02.842Z,948.7
2017-11-15T00:53:10.782Z,948.8
2017-11-15T00:54:18.925Z,948.8
2017-11-15T00:55:26.925Z,948.7
2017-11-15T00:56:34.985Z,948.7
2017-11-15T00:57:43.076Z,948.7
2017-11-15T00:58:51.320Z,948.8
2017-11-15T00:59:59.299Z,948.7
2017-11-15T01:01:07.327Z,948.8
2017-11-15T01:02:15.415Z,948.8
2017-11-15T01:03:23.516Z,948.7
2017-11-15T01:04:31.753Z,948.8
2017-11-15T01:05:39.670Z,948.8
2017-11-15T01:06:47.760Z,948.8
2017-11-15T01:07:55.844Z,948.8
2017-11-15T01:09:03.952Z,948.8
2017-11-15T01:10:12.095Z,948.8
2017-11-15T01:11:20.126Z,948.8
2017-11-15T01:12:28.212Z,948.8
2017-11-15T01:13:36.296Z,948.8
2017-11-15T01:14:44.385Z,948.8
2017-11-15T01:15:52.588Z,948.8
2017-11-15T01:17:00.558Z,948.8
2017-11-15T01:18:08.640Z,948.8
2017-11-15T01:19:16.724Z,948.8
2017-11-15T01:20:24.825Z,948.8
2017-11-15T01:21:32.970Z,948.8
2017-11-15T01:22:41.000Z,948.9
2017-11-15T01:23:49.090Z,948.8
2017-11-15T01:24:57.177Z,948.8
2017-11-15T01:26:05.273Z,948.8
2017-11-15T01:27:13.425Z,948.8
2017-11-15T01:28:21.445Z,948.8
2017-11-15T01:29:29.530Z,948.8
2017-11-15T01:30:37.617Z,948.8
2017-11-15T01:31:45.823Z,948.8
2017-11-15T01:32:53.857Z,948.8
2017-11-15T01:34:01.888Z,948.7
2017-11-15T01:35:09.983Z,948.7
2017-11-15T01:36:18.069Z,948.7
2017-11-15T01:37:26.142Z,948.7
2017-11-15T01:38:34.365Z,948.6
2017-11-15T01:39:42.324Z,948.6
2017-11-15T01:40:50.509Z,948.6
2017-11-15T01:41:58.497Z,948.6
2017-11-15T01:43:06.584Z,948.6
2017-11-15T01:44:14.743Z,948.7
2017-11-15T01:45:22.853Z,948.6
2017-11-15T01:46:30.872Z,948.6
2017-11-15T01:47:39.012Z,948.6
2017-11-15T01:48:47.041Z,948.7
2017-11-15T01:49:55.307Z,948.6
2017-11-15T01:51:03.215Z,948.6
2017-11-15T01:52:11.302Z,948.6
2017-11-15T01:53:19.389Z,948.6
2017-11-15T01:54:27.473Z,948.6
2017-11-15T01:55:35.629Z,948.6
2017-11-15T01:56:43.644Z,948.6
2017-11-15T01:57:51.730Z,948.6
2017-11-15T01:58:59.979Z,948.6
2017-11-15T02:00:08.018Z,948.7
2017-11-15T02:01:16.057Z,948.7
2017-11-15T02:02:24.080Z,948.7
2017-11-15T02:03:32.455Z,948.7
2017-11-15T02:04:40.259Z,948.7
2017-11-15T02:05:48.337Z,948.8
2017-11-15T02:06:56.481Z,948.7
2017-11-15T02:08:04.573Z,948.7
2017-11-15T02:09:12.605Z,948.8
2017-11-15T02:10:20.681Z,948.7
2017-11-15T02:11:28.768Z,948.8
2017-11-15T02:12:36.978Z,948.7
2017-11-15T02:13:44.943Z,948.8
2017-11-15T02:14:53.028Z,948.8
2017-11-15T02:16:01.114Z,948.8
2017-11-15T02:17:09.202Z,948.8
2017-11-15T02:18:17.404Z,948.8
2017-11-15T02:19:25.505Z,948.8
2017-11-15T02:20:33.467Z,948.7
2017-11-15T02:21:41.554Z,948.8
2017-11-15T02:22:49.640Z,948.8
2017-11-15T02:23:57.780Z,948.8
2017-11-15T02:25:05.808Z,948.8
2017-11-15T02:26:13.893Z,948.8
2017-11-15T02:27:22.003Z,948.8
2017-11-15T02:28:30.065Z,948.8
2017-11-15T02:29:38.207Z,948.8
2017-11-15T02:30:46.396Z,948.8
2017-11-15T02:31:54.326Z,948.8
2017-11-15T02:33:02.411Z,948.8
2017-11-15T02:34:10.496Z,948.8
2017-11-15T02:35:18.709Z,948.8
2017-11-15T02:36:26.670Z,948.7
2017-11-15T02:37:34.757Z,948.8
2017-11-15T02:38:42.850Z,948.7
2017-11-15T02:39:50.929Z,948.7
2017-11-15T02:40:59.073Z,948.7
2017-11-15T02:42:07.104Z,948.7
2017-11-15T02:43:15.187Z,948.6
2017-11-15T02:44:23.441Z,948.6
2017-11-15T02:45:31.468Z,948.6
2017-11-15T02:46:39.497Z,948.6
2017-11-15T02:47:47.534Z,948.6
2017-11-15T02:48:55.613Z,948.5
2017-11-15T02:50:03.835Z,948.5
2017-11-15T02:51:11.917Z,948.5
2017-11-15T02:52:19.995Z,948.5
2017-11-15T02:53:27.956Z,948.5
2017-11-15T02:54:36.170Z,948.5
2017-11-15T02:55:44.133Z,948.5
2017-11-15T02:56:52.214Z,948.5
2017-11-15T02:58:00.365Z,948.5
2017-11-15T02:59:08.528Z,948.5
2017-11-15T03:00:16.488Z,948.4
2017-11-15T03:01:24.572Z,948.4
2017-11-15T03:02:32.659Z,948.5
2017-11-15T03:03:40.803Z,948.5
2017-11-15T03:04:48.832Z,948.4
2017-11-15T03:05:56.918Z,948.4
2017-11-15T03:07:05.122Z,948.4
2017-11-15T03:08:13.086Z,948.5
2017-11-15T03:09:21.240Z,948.5
2017-11-15T03:10:29.262Z,948.5
2017-11-15T03:11:37.358Z,948.5
2017-11-15T03:12:45.427Z,948.5
2017-11-15T03:13:53.511Z,948.5
2017-11-15T03:15:01.671Z,948.5
2017-11-15T03:16:09.683Z,948.5
2017-11-15T03:17:17.913Z,948.5
2017-11-15T03:18:25.853Z,948.5
2017-11-15T03:19:33.938Z,948.5
2017-11-15T03:20:42.142Z,948.5
2017-11-15T03:21:50.282Z,948.4
2017-11-15T03:22:58.316Z,948.5
2017-11-15T03:24:06.285Z,948.5
2017-11-15T03:25:14.367Z,948.5
2017-11-15T03:26:22.701Z,948.5
2017-11-15T03:27:30.536Z,948.5
2017-11-15T03:28:38.624Z,948.4
2017-11-15T03:29:46.704Z,948.4
2017-11-15T03:30:54.800Z,948.4
2017-11-15T03:32:02.985Z,948.4
2017-11-15T03:33:10.961Z,948.4
2017-11-15T03:34:19.043Z,948.4
2017-11-15T03:35:27.129Z,948.4
2017-11-15T03:36:35.215Z,948.4
2017-11-15T03:37:43.427Z,948.3
2017-11-15T03:38:51.506Z,948.3
2017-11-15T03:39:59.475Z,948.3
2017-11-15T03:41:07.609Z,948.3
2017-11-15T03:42:15.641Z,948.3
2017-11-15T03:43:24.537Z,948.3
2017-11-15T03:44:32.391Z,948.4
2017-11-15T03:45:40.476Z,948.3
2017-11-15T03:46:48.564Z,948.4
2017-11-15T03:47:56.826Z,948.4
2017-11-15T03:49:04.789Z,948.4
2017-11-15T03:50:12.843Z,948.4
2017-11-15T03:51:20.901Z,948.4
2017-11-15T03:52:28.994Z,948.4
2017-11-15T03:53:37.073Z,948.4
2017-11-15T03:54:45.587Z,948.4
2017-11-15T03:55:53.553Z,948.4
2017-11-15T03:57:01.635Z,948.4
2017-11-15T03:58:09.724Z,948.4
2017-11-15T03:59:17.805Z,948.4
2017-11-15T04:00:26.052Z,948.4
2017-11-15T04:01:33.975Z,948.4
2017-11-15T04:02:42.058Z,948.4
2017-11-15T04:03:50.148Z,948.3
2017-11-15T04:04:58.230Z,948.3
2017-11-15T04:06:06.434Z,948.3
2017-11-15T04:07:14.405Z,948.3
2017-11-15T04:08:22.491Z,948.3
2017-11-15T04:09:30.572Z,948.3
2017-11-15T04:10:38.721Z,948.2
2017-11-15T04:11:46.805Z,948.2
2017-11-15T04:12:54.852Z,948.2
2017-11-15T04:14:02.940Z,948.2
2017-11-15T04:15:11.027Z,948.2
2017-11-15T04:16:19.110Z,948.2
2017-11-15T04:17:27.318Z,948.2
2017-11-15T04:18:35.287Z,948.1
2017-11-15T04:19:43.372Z,948.1
2017-11-15T04:20:51.447Z,948.2
2017-11-15T04:21:59.533Z,948.2
2017-11-15T04:23:07.735Z,948.1
2017-11-15T04:24:15.701Z,948.2
2017-11-15T04:25:23.790Z,948.1
2017-11-15T04:26:31.933Z,948.1
2017-11-15T04:27:39.968Z,948.0
2017-11-15T04:28:48.339Z,948.1
2017-11-15T04:29:56.130Z,948.1
2017-11-15T04:31:04.210Z,948.1
2017-11-15T04:32:12.297Z,948.0
2017-11-15T04:33:20.395Z,948.0
2017-11-15T04:34:28.604Z,948.0
2017-11-15T04:35:36.565Z,948.0
2017-11-15T04:36:44.654Z,948.0
2017-11-15T04:37:52.737Z,948.0
2017-11-15T04:39:00.820Z,948.0
2017-11-15T04:40:09.205Z,948.0
2017-11-15T04:41:17.331Z,948.0
2017-11-15T04:42:25.371Z,948.0
2017-11-15T04:43:33.401Z,948.0
2017-11-15T04:44:41.485Z,948.0
2017-11-15T04:45:49.648Z,948.0
2017-11-15T04:46:57.652Z,948.0
2017-11-15T04:48:05.741Z,948.0
2017-11-15T04:49:13.823Z,948.0
2017-11-15T04:50:21.911Z,948.0
2017-11-15T04:51:30.049Z,948.0
2017-11-15T04:52:38.076Z,948.0
2017-11-15T04:53:46.159Z,948.0
2017-11-15T04:54:54.385Z,948.0
2017-11-15T04:56:02.528Z,948.1
2017-11-15T04:57:10.478Z,948.1
2017-11-15T04:58:18.556Z,948.0
2017-11-15T04:59:26.585Z,948.0
2017-11-15T05:00:34.667Z,948.0
2017-11-15T05:01:42.787Z,948.0
2017-11-15T05:02:51.085Z,948.0
2017-11-15T05:03:58.926Z,948.0
2017-11-15T05:05:07.114Z,948.1
2017-11-15T05:06:15.092Z,948.1
2017-11-15T05:07:23.173Z,948.0
2017-11-15T05:08:31.317Z,948.0
2017-11-15T05:09:39.340Z,948.0
2017-11-15T05:10:47.435Z,948.0
2017-11-15T05:11:55.507Z,948.0
2017-11-15T05:13:03.644Z,948.0
2017-11-15T05:14:11.742Z,948.1
2017-11-15T05:15:19.764Z,948.1
2017-11-15T05:16:27.853Z,948.1
2017-11-15T05:17:35.957Z,948.0
2017-11-15T05:18:44.145Z,948.1
2017-11-15T05:19:52.155Z,948.1
2017-11-15T05:21:00.182Z,948.1
2017-11-15T05:22:08.319Z,948.1
2017-11-15T05:23:16.487Z,948.1
2017-11-15T05:24:24.527Z,948.2
2017-11-15T05:25:32.640Z,948.2
2017-11-15T05:26:40.606Z,948.2
2017-11-15T05:27:48.842Z,948.2
2017-11-15T05:28:56.773Z,948.2
2017-11-15T05:30:04.942Z,948.2
2017-11-15T05:31:13.077Z,948.2
2017-11-15T05:32:21.178Z,948.2
2017-11-15T05:33:29.111Z,948.2
2017-11-15T05:34:37.193Z,948.2
2017-11-15T05:35:45.283Z,948.2
2017-11-15T05:36:53.419Z,948.2
2017-11-15T05:38:01.468Z,948.1
2017-11-15T05:39:09.529Z,948.1
2017-11-15T05:40:17.613Z,948.2
2017-11-15T05:41:25.999Z,948.2
2017-11-15T05:42:33.844Z,948.2
2017-11-15T05:43:41.867Z,948.2
2017-11-15T05:44:49.951Z,948.2
2017-11-15T05:45:58.091Z,948.2
2017-11-15T05:47:06.173Z,948.3
2017-11-15T05:48:14.322Z,948.3
2017-11-15T05:49:22.292Z,948.3
2017-11-15T05:50:30.385Z,948.3
2017-11-15T05:51:38.453Z,948.3
2017-11-15T05:52:46.543Z,948.3
2017-11-15T05:53:54.683Z,948.2
2017-11-15T05:55:02.709Z,948.3
2017-11-15T05:56:10.945Z,948.3
2017-11-15T05:57:18.876Z,948.3
2017-11-15T05:58:26.964Z,948.3
2017-11-15T05:59:35.100Z,948.3
2017-11-15T06:00:43.209Z,948.3
2017-11-15T06:01:51.594Z,948.3
2017-11-15T06:02:59.320Z,948.3
2017-11-15T06:04:07.522Z,948.3
2017-11-15T06:05:16.383Z,948.4
2017-11-15T06:06:23.559Z,948.4
2017-11-15T06:07:31.644Z,948.4
2017-11-15T06:08:39.736Z,948.4
2017-11-15T06:09:48.014Z,948.4
2017-11-15T06:10:56.265Z,948.3
2017-11-15T06:12:04.082Z,948.3
2017-11-15T06:13:12.168Z,948.4
2017-11-15T06:14:20.243Z,948.4
2017-11-15T06:15:28.419Z,948.4
2017-11-15T06:16:36.562Z,948.4
2017-11-15T06:17:44.653Z,948.4
2017-11-15T06:18:52.652Z,948.4
2017-11-15T06:20:01.002Z,948.4
2017-11-15T06:21:08.870Z,948.4
2017-11-15T06:22:16.945Z,948.5
2017-11-15T06:23:25.150Z,948.5
2017-11-15T06:24:33.081Z,948.5
2017-11-15T06:25:41.094Z,948.5
2017-11-15T06:26:49.280Z,948.5
2017-11-15T06:27:57.314Z,948.5
2017-11-15T06:29:05.361Z,948.5
2017-11-15T06:30:13.509Z,948.5
2017-11-15T06:31:21.549Z,948.5
2017-11-15T06:32:29.710Z,948.5
2017-11-15T06:33:37.882Z,948.5
2017-11-15T06:34:45.810Z,948.5
2017-11-15T06:35:53.957Z,948.5
2017-11-15T06:37:01.939Z,948.6
2017-11-15T06:38:10.091Z,948.5
2017-11-15T06:39:18.165Z,948.5
2017-11-15T06:40:26.196Z,948.5
2017-11-15T06:41:34.404Z,948.5
2017-11-15T06:42:42.421Z,948.5
2017-11-15T06:43:50.454Z,948.5
2017-11-15T06:44:58.587Z,948.5
2017-11-15T06:46:06.619Z,948.5
2017-11-15T06:47:14.724Z,948.6
2017-11-15T06:48:22.805Z,948.6
2017-11-15T06:49:31.015Z,948.6
2017-11-15T06:50:39.163Z,948.6
2017-11-15T06:51:47.141Z,948.6
2017-11-15T06:52:55.150Z,948.6
2017-11-15T06:54:03.239Z,948.6
2017-11-15T06:55:11.320Z,948.6
2017-11-15T06:56:19.539Z,948.6
2017-11-15T06:57:27.489Z,948.6
2017-11-15T06:58:35.578Z,948.6
2017-11-15T06:59:43.655Z,948.6
2017-11-15T07:00:51.937Z,948.6
2017-11-15T07:01:59.942Z,948.6
2017-11-15T07:03:07.907Z,948.7
2017-11-15T07:04:16.116Z,948.8
2017-11-15T07:05:24.334Z,948.8
2017-11-15T07:06:32.284Z,948.8
2017-11-15T07:07:40.490Z,948.7
2017-11-15T07:08:48.457Z,948.7
2017-11-15T07:09:56.536Z,948.7
2017-11-15T07:11:04.627Z,948.7
2017-11-15T07:12:13.819Z,948.7
2017-11-15T07:13:21.961Z,948.7
2017-11-15T07:14:30.055Z,948.8
2017-11-15T07:15:38.076Z,948.8
2017-11-15T07:16:46.156Z,948.9
2017-11-15T07:17:54.241Z,948.9
2017-11-15T07:19:02.442Z,948.9
2017-11-15T07:20:10.409Z,948.9
2017-11-15T07:21:18.548Z,948.8
2017-11-15T07:22:26.576Z,948.8
2017-11-15T07:23:34.669Z,948.9
2017-11-15T07:24:42.866Z,948.9
2017-11-15T07:25:50.829Z,948.8
2017-11-15T07:26:58.923Z,948.9
2017-11-15T07:28:07.040Z,948.9
2017-11-15T07:29:15.080Z,948.9
2017-11-15T07:30:23.225Z,948.8
2017-11-15T07:31:31.248Z,948.8
2017-11-15T07:32:39.384Z,948.8
2017-11-15T07:33:47.426Z,948.9
2017-11-15T07:34:55.512Z,948.8
2017-11-15T07:36:03.724Z,948.8
2017-11-15T07:37:11.736Z,948.8
2017-11-15T07:38:19.764Z,948.8
2017-11-15T07:39:27.850Z,948.8
2017-11-15T07:40:35.940Z,948.8
2017-11-15T07:41:44.080Z,948.8
2017-11-15T07:42:52.439Z,948.8
2017-11-15T07:44:00.524Z,948.8
2017-11-15T07:45:08.612Z,948.8
2017-11-15T07:46:16.702Z,948.8
2017-11-15T07:47:24.834Z,948.8
2017-11-15T07:48:33.050Z,948.8
2017-11-15T07:49:41.236Z,948.8
2017-11-15T07:50:49.217Z,948.9
2017-11-15T07:51:57.304Z,948.9
2017-11-15T07:53:05.509Z,948.9
2017-11-15T07:54:13.465Z,948.9
2017-11-15T07:55:21.552Z,949.0
2017-11-15T07:56:29.642Z,949.0
2017-11-15T07:57:37.720Z,948.9
2017-11-15T07:58:46.238Z,949.0
2017-11-15T07:59:54.175Z,949.0
2017-11-15T08:01:02.227Z,949.0
2017-11-15T08:02:10.502Z,949.0
2017-11-15T08:03:18.397Z,949.0
2017-11-15T08:04:26.600Z,949.0
2017-11-15T08:05:34.564Z,949.0
2017-11-15T08:06:42.657Z,949.0
2017-11-15T08:07:50.739Z,949.0
2017-11-15T08:08:58.888Z,949.0
2017-11-15T08:10:07.043Z,949.0
2017-11-15T08:11:14.992Z,949.0
2017-11-15T08:12:23.081Z,949.0
2017-11-15T08:13:31.163Z,949.0
2017-11-15T08:14:39.249Z,949.0
2017-11-15T08:15:47.398Z,949.0
2017-11-15T08:16:55.647Z,949.0
2017-11-15T08:18:03.733Z,949.1
2017-11-15T08:19:11.816Z,949.1
2017-11-15T08:20:20.009Z,949.1
2017-11-15T08:21:28.115Z,949.1
2017-11-15T08:22:36.067Z,949.0
2017-11-15T08:23:44.152Z,949.0
2017-11-15T08:24:52.296Z,949.0
2017-11-15T08:26:00.328Z,949.0
2017-11-15T08:27:08.536Z,949.0
2017-11-15T08:28:16.501Z,949.0
2017-11-15T08:29:24.583Z,949.0
2017-11-15T08:30:32.672Z,949.0
2017-11-15T08:31:40.753Z,949.0
2017-11-15T08:32:48.902Z,949.0
2017-11-15T08:33:57.127Z,949.0
2017-11-15T08:35:05.017Z,949.0
2017-11-15T08:36:13.102Z,949.0
2017-11-15T08:37:21.184Z,949.0
2017-11-15T08:38:29.877Z,949.0
2017-11-15T08:39:37.367Z,949.0
2017-11-15T08:40:45.507Z,949.0
2017-11-15T08:41:53.547Z,949.0
2017-11-15T08:43:01.630Z,949.0
2017-11-15T08:44:09.778Z,949.0
2017-11-15T08:45:17.798Z,949.0
2017-11-15T08:46:25.881Z,949.0
2017-11-15T08:47:34.145Z,949.0
2017-11-15T08:48:42.086Z,949.0
2017-11-15T08:49:50.197Z,949.0
2017-11-15T08:50:58.230Z,949.0
2017-11-15T08:52:06.419Z,949.0
2017-11-15T08:53:14.410Z,949.0
2017-11-15T08:54:22.485Z,949.0
2017-11-15T08:55:30.619Z,949.0
2017-11-15T08:56:38.707Z,949.0
2017-11-15T08:57:46.731Z,949.0
2017-11-15T08:58:55.026Z,949.0
2017-11-15T09:00:03.123Z,949.0
2017-11-15T09:01:11.414Z,949.0
2017-11-15T09:02:19.443Z,949.0
2017-11-15T09:03:27.539Z,949.0
2017-11-15T09:04:35.689Z,949.0
2017-11-15T09:05:43.759Z,949.1
2017-11-15T09:06:51.857Z,949.1
2017-11-15T09:07:59.887Z,949.1
2017-11-15T09:09:07.971Z,949.1
2017-11-15T09:10:16.059Z,949.1
2017-11-15T09:11:24.142Z,949.1
2017-11-15T09:12:32.281Z,949.1
2017-11-15T09:13:40.308Z,949.1
2017-11-15T09:14:48.508Z,949.0
2017-11-15T09:15:56.479Z,949.1
2017-11-15T09:17:04.561Z,949.1
2017-11-15T09:18:12.712Z,949.1
2017-11-15T09:19:20.730Z,949.0
2017-11-15T09:20:28.816Z,949.0
2017-11-15T09:21:36.901Z,949.0
2017-11-15T09:22:44.981Z,949.0
2017-11-15T09:23:53.131Z,949.0
2017-11-15T09:25:01.156Z,949.0
2017-11-15T09:26:09.247Z,949.0
2017-11-15T09:27:17.331Z,949.0
2017-11-15T09:28:25.491Z,949.0
2017-11-15T09:29:33.620Z,949.0
2017-11-15T09:30:41.584Z,949.0
2017-11-15T09:31:49.667Z,949.0
2017-11-15T09:32:57.876Z,949.0
2017-11-15T09:34:05.838Z,949.0
2017-11-15T09:35:13.977Z,949.0
2017-11-15T09:36:22.008Z,949.0
2017-11-15T09:37:30.144Z,949.0
2017-11-15T09:38:38.177Z,949.0
2017-11-15T09:39:46.261Z,949.0
2017-11-15T09:40:54.400Z,949.0
2017-11-15T09:42:02.491Z,949.0
2017-11-15T09:43:10.512Z,949.0
2017-11-15T09:44:18.719Z,949.0
2017-11-15T09:45:26.681Z,949.1
2017-11-15T09:46:34.989Z,949.1
2017-11-15T09:47:42.860Z,949.1
2017-11-15T09:48:50.936Z,949.1
2017-11-15T09:49:59.024Z,949.0
2017-11-15T09:51:07.276Z,949.1
2017-11-15T09:52:15.259Z,949.1
2017-11-15T09:53:23.274Z,949.1
2017-11-15T09:54:31.359Z,949.0
2017-11-15T09:55:39.444Z,949.1
2017-11-15T09:56:47.530Z,949.1
2017-11-15T09:57:55.666Z,949.1
2017-11-15T09:59:03.697Z,949.1
2017-11-15T10:00:11.907Z,949.1
2017-11-15T10:01:19.881Z,949.1
2017-11-15T10:02:27.959Z,949.1
2017-11-15T10:03:36.120Z,949.0
2017-11-15T10:04:44.184Z,949.1
2017-11-15T10:05:52.211Z,949.0
2017-11-15T10:07:00.296Z,949.0
2017-11-15T10:08:08.379Z,949.0
2017-11-15T10:09:16.525Z,949.0
2017-11-15T10:10:24.547Z,949.0
2017-11-15T10:11:32.635Z,949.0
2017-11-15T10:12:40.728Z,949.0
2017-11-15T10:13:48.814Z,948.9
2017-11-15T10:14:56.958Z,948.9
2017-11-15T10:16:05.098Z,948.9
2017-11-15T10:17:13.071Z,948.8
2017-11-15T10:18:21.189Z,948.9
2017-11-15T10:19:29.359Z,948.9
2017-11-15T10:20:37.393Z,948.9
2017-11-15T10:21:45.422Z,948.8
2017-11-15T10:22:53.505Z,948.9
2017-11-15T10:24:01.589Z,948.9
2017-11-15T10:25:09.676Z,948.8
2017-11-15T10:26:17.825Z,948.8
2017-11-15T10:27:25.853Z,948.7
2017-11-15T10:28:34.058Z,948.7
2017-11-15T10:29:42.022Z,948.7
2017-11-15T10:30:50.105Z,948.7
2017-11-15T10:31:58.255Z,948.7
2017-11-15T10:33:06.483Z,948.6
2017-11-15T10:34:14.361Z,948.6
2017-11-15T10:35:22.444Z,948.6
2017-11-15T10:36:30.549Z,948.6
2017-11-15T10:37:38.677Z,948.5
2017-11-15T10:38:46.851Z,948.6
2017-11-15T10:39:54.783Z,948.5
2017-11-15T10:41:02.872Z,948.5
2017-11-15T10:42:11.160Z,948.5
2017-11-15T10:43:19.242Z,948.5
2017-11-15T10:44:27.209Z,948.5
2017-11-15T10:45:35.674Z,948.4
2017-11-15T10:46:43.756Z,948.4
2017-11-15T10:47:51.899Z,948.4
2017-11-15T10:49:00.052Z,948.4
2017-11-15T10:50:08.017Z,948.4
2017-11-15T10:51:16.101Z,948.4
2017-11-15T10:52:24.187Z,948.4
2017-11-15T10:53:32.272Z,948.3
2017-11-15T10:54:40.414Z,948.4
2017-11-15T10:55:48.589Z,948.4
2017-11-15T10:56:56.523Z,948.3
2017-11-15T10:58:04.611Z,948.3
2017-11-15T10:59:12.693Z,948.4
2017-11-15T11:00:20.900Z,948.3
2017-11-15T11:01:28.861Z,948.3
2017-11-15T11:02:36.948Z,948.3
2017-11-15T11:03:45.114Z,948.3
2017-11-15T11:04:53.115Z,948.3
2017-11-15T11:06:01.321Z,948.3
2017-11-15T11:07:09.296Z,948.3
2017-11-15T11:08:17.439Z,948.3
2017-11-15T11:09:25.464Z,948.3
2017-11-15T11:10:33.549Z,948.3
2017-11-15T11:11:41.691Z,948.3
2017-11-15T11:12:49.719Z,948.3
2017-11-15T11:13:57.828Z,948.3
2017-11-15T11:15:05.887Z,948.3
2017-11-15T11:16:14.091Z,948.3
2017-11-15T11:17:22.054Z,948.3
2017-11-15T11:18:30.141Z,948.3
2017-11-15T11:19:38.299Z,948.3
2017-11-15T11:20:46.308Z,948.2
2017-11-15T11:21:54.451Z,948.3
2017-11-15T11:23:02.484Z,948.2
2017-11-15T11:24:10.562Z,948.2
2017-11-15T11:25:18.666Z,948.2
2017-11-15T11:26:27.266Z,948.1
2017-11-15T11:27:35.302Z,948.2
2017-11-15T11:28:43.332Z,948.1
2017-11-15T11:29:51.415Z,948.1
2017-11-15T11:30:59.500Z,948.1
2017-11-15T11:32:07.588Z,948.1
2017-11-15T11:33:15.727Z,948.2
2017-11-15T11:34:23.754Z,948.1
2017-11-15T11:35:31.966Z,948.1
2017-11-15T11:36:39.921Z,948.1
2017-11-15T11:37:48.129Z,948.1
2017-11-15T11:38:56.146Z,948.1
2017-11-15T11:40:04.175Z,948.2
2017-11-15T11:41:12.265Z,948.1
2017-11-15T11:42:20.350Z,948.1
2017-11-15T11:43:28.443Z,948.1
2017-11-15T11:44:36.656Z,948.1
2017-11-15T11:45:44.627Z,948.1
2017-11-15T11:46:52.706Z,948.0
2017-11-15T11:48:00.792Z,948.0
2017-11-15T11:49:08.961Z,948.0
2017-11-15T11:50:17.230Z,948.0
2017-11-15T11:51:25.381Z,948.0
2017-11-15T11:52:33.356Z,948.0
2017-11-15T11:53:41.454Z,947.9
2017-11-15T11:54:49.523Z,947.9
2017-11-15T11:55:57.672Z,947.9
2017-11-15T11:57:05.710Z,947.9
2017-11-15T11:58:13.797Z,947.9
2017-11-15T11:59:21.913Z,947.9
2017-11-15T12:00:29.995Z,947.9
2017-11-15T12:01:38.148Z,947.9
2017-11-15T12:02:46.165Z,947.8
2017-11-15T12:03:54.249Z,947.8
2017-11-15T12:05:02.330Z,947.8
2017-11-15T12:06:10.427Z,947.8
2017-11-15T12:07:18.563Z,947.9
2017-11-15T12:08:26.586Z,947.8
2017-11-15T12:09:34.670Z,947.8
2017-11-15T12:10:42.822Z,947.9
2017-11-15T12:11:50.852Z,947.8
2017-11-15T12:12:59.001Z,947.8
2017-11-15T12:14:07.040Z,947.8
2017-11-15T12:15:15.125Z,947.8
2017-11-15T12:16:23.210Z,947.9
2017-11-15T12:17:31.292Z,947.8
2017-11-15T12:18:39.502Z,947.8
2017-11-15T12:19:47.595Z,947.8
2017-11-15T12:20:55.547Z,947.8
2017-11-15T12:22:03.634Z,947.8
2017-11-15T12:23:11.780Z,947.8
2017-11-15T12:24:20.019Z,947.8
2017-11-15T12:25:27.902Z,947.8
2017-11-15T12:26:35.991Z,947.8
2017-11-15T12:27:44.072Z,947.7
2017-11-15T12:28:52.155Z,947.8
2017-11-15T12:30:00.517Z,947.7
2017-11-15T12:31:08.352Z,947.7
2017-11-15T12:32:16.437Z,947.7
2017-11-15T12:33:24.519Z,947.7
2017-11-15T12:34:32.603Z,947.6
2017-11-15T12:35:40.743Z,947.7
2017-11-15T12:36:48.772Z,947.6
2017-11-15T12:37:56.855Z,947.6
2017-11-15T12:39:05.069Z,947.6
2017-11-15T12:40:13.027Z,947.6
2017-11-15T12:41:21.167Z,947.6
2017-11-15T12:42:29.193Z,947.5
2017-11-15T12:43:37.280Z,947.5
2017-11-15T12:44:45.383Z,947.6
2017-11-15T12:45:53.445Z,947.5
2017-11-15T12:47:01.585Z,947.5
2017-11-15T12:48:09.614Z,947.5
2017-11-15T12:49:17.701Z,947.5
2017-11-15T12:50:25.784Z,947.4
2017-11-15T12:51:33.868Z,947.5
2017-11-15T12:52:42.011Z,947.4
2017-11-15T12:53:50.038Z,947.4
2017-11-15T12:54:58.176Z,947.3
2017-11-15T12:56:06.204Z,947.3
2017-11-15T12:57:14.386Z,947.3
2017-11-15T12:58:22.429Z,947.3
2017-11-15T12:59:30.456Z,947.3
2017-11-15T13:00:38.543Z,947.3
2017-11-15T13:01:46.628Z,947.2
2017-11-15T13:02:54.712Z,947.2
2017-11-15T13:04:02.849Z,947.3
2017-11-15T13:05:10.883Z,947.3
2017-11-15T13:06:18.962Z,947.3
2017-11-15T13:07:27.050Z,947.2
2017-11-15T13:08:35.133Z,947.2
2017-11-15T13:09:43.273Z,947.2
2017-11-15T13:10:51.543Z,947.2
2017-11-15T13:11:59.386Z,947.2
2017-11-15T13:13:07.470Z,947.2
2017-11-15T13:14:15.552Z,947.2
2017-11-15T13:15:23.769Z,947.1
2017-11-15T13:16:31.720Z,947.1
2017-11-15T13:17:39.827Z,947.2
2017-11-15T13:18:47.890Z,947.2
2017-11-15T13:19:55.972Z,947.2
2017-11-15T13:21:04.285Z,947.2
2017-11-15T13:22:12.144Z,947.2
2017-11-15T13:23:20.227Z,947.2
2017-11-15T13:24:28.319Z,947.2
2017-11-15T13:25:36.393Z,947.2
2017-11-15T13:26:44.596Z,947.2
2017-11-15T13:27:52.560Z,947.3
2017-11-15T13:29:00.646Z,947.2
2017-11-15T13:30:08.730Z,947.3
2017-11-15T13:31:16.816Z,947.3
2017-11-15T13:32:24.956Z,947.2
2017-11-15T13:33:33.001Z,947.2
2017-11-15T13:34:41.080Z,947.2
2017-11-15T13:35:49.163Z,947.2
2017-11-15T13:36:57.247Z,947.2
2017-11-15T13:38:05.589Z,947.2
2017-11-15T13:39:13.427Z,947.2
2017-11-15T13:40:21.512Z,947.2
2017-11-15T13:41:29.597Z,947.2
2017-11-15T13:42:37.740Z,947.2
2017-11-15T13:43:46.004Z,947.2
2017-11-15T13:44:53.880Z,947.2
2017-11-15T13:46:01.941Z,947.2
2017-11-15T13:47:10.022Z,947.1
2017-11-15T13:48:18.217Z,947.2
2017-11-15T13:49:26.261Z,947.2
2017-11-15T13:50:34.277Z,947.2
2017-11-15T13:51:42.368Z,947.2
2017-11-15T13:52:50.553Z,947.2
2017-11-15T13:53:58.532Z,947.2
2017-11-15T13:55:06.667Z,947.2
2017-11-15T13:56:14.694Z,947.2
2017-11-15T13:57:22.782Z,947.2
2017-11-15T13:58:30.984Z,947.2
2017-11-15T13:59:38.968Z,947.2
2017-11-15T14:00:47.152Z,947.2
2017-11-15T14:01:55.116Z,947.2
2017-11-15T14:03:03.271Z,947.3
2017-11-15T14:04:11.282Z,947.3
2017-11-15T14:05:19.365Z,947.3
2017-11-15T14:06:27.503Z,947.3
2017-11-15T14:07:35.532Z,947.3
2017-11-15T14:08:43.621Z,947.3
2017-11-15T14:09:51.700Z,947.3
2017-11-15T14:10:59.783Z,947.3
2017-11-15T14:12:07.931Z,947.3
2017-11-15T14:13:15.951Z,947.3
2017-11-15T14:14:24.092Z,947.3
2017-11-15T14:15:32.118Z,947.3
2017-11-15T14:16:40.200Z,947.3
2017-11-15T14:17:48.347Z,947.3
2017-11-15T14:18:56.375Z,947.3
2017-11-15T14:20:04.449Z,947.3
2017-11-15T14:21:12.565Z,947.3
2017-11-15T14:22:20.619Z,947.3
2017-11-15T14:23:28.759Z,947.3
2017-11-15T14:24:36.792Z,947.3
2017-11-15T14:25:44.873Z,947.3
2017-11-15T14:26:52.969Z,947.3
2017-11-15T14:28:01.051Z,947.3
2017-11-15T14:29:09.260Z,947.2
2017-11-15T14:30:17.578Z,947.3
2017-11-15T14:31:25.376Z,947.2
2017-11-15T14:32:33.454Z,947.2
2017-11-15T14:33:41.539Z,947.2
2017-11-15T14:34:49.681Z,947.2
2017-11-15T14:35:57.707Z,947.2
2017-11-15T14:37:05.854Z,947.2